sensor_id;sensor_type;location;lat;lon;timestamp;temperature;humidity
21672;DHT22;10997;52.242;8.168;2023-06-24T00:02:10;16.50;99.90
21672;DHT22;10997;52.242;8.168;2023-06-24T00:07:10;16.30;99.90
21672;DHT22;10997;52.242;8.168;2023-06-24T00:12:11;16.20;99.90
21672;DHT22;10997;52.242;8.168;2023-06-24T00:17:19;16.10;99.90
21672;DHT22;10997;52.242;8.168;2023-06-24T00:22:19;16.00;99.90
21672;DHT22;10997;52.242;8.168;2023-06-24T00:27:20;16.00;99.90
21672;DHT22;10997;52.242;8.168;2023-06-24T00:32:20;15.80;99.90
21672;DHT22;10997;52.242;8.168;2023-06-24T00:37:21;15.80;99.90
21672;DHT22;10997;52.242;8.168;2023-06-24T00:42:21;15.80;99.90
21672;DHT22;10997;52.242;8.168;2023-06-24T00:47:22;15.80;99.90
21672;DHT22;10997;52.242;8.168;2023-06-24T00:52:24;15.70;99.90
21672;DHT22;10997;52.242;8.168;2023-06-24T00:57:24;15.60;99.90
21672;DHT22;10997;52.242;8.168;2023-06-24T01:02:26;15.50;99.90
21672;DHT22;10997;52.242;8.168;2023-06-24T01:07:29;15.30;99.90
21672;DHT22;10997;52.242;8.168;2023-06-24T01:12:30;15.20;99.90
21672;DHT22;10997;52.242;8.168;2023-06-24T01:23:10;15.10;99.90
21672;DHT22;10997;52.242;8.168;2023-06-24T01:33:41;15.00;99.90
21672;DHT22;10997;52.242;8.168;2023-06-24T01:38:48;14.90;99.90
21672;DHT22;10997;52.242;8.168;2023-06-24T01:43:53;14.90;99.90
21672;DHT22;10997;52.242;8.168;2023-06-24T01:48:59;14.80;99.90
21672;DHT22;10997;52.242;8.168;2023-06-24T01:54:04;14.70;99.90
21672;DHT22;10997;52.242;8.168;2023-06-24T01:59:07;14.70;99.90
21672;DHT22;10997;52.242;8.168;2023-06-24T02:04:08;14.60;99.90
21672;DHT22;10997;52.242;8.168;2023-06-24T02:09:11;14.60;99.90
21672;DHT22;10997;52.242;8.168;2023-06-24T02:14:12;14.60;99.90
21672;DHT22;10997;52.242;8.168;2023-06-24T02:19:14;14.60;99.90
21672;DHT22;10997;52.242;8.168;2023-06-24T02:24:19;14.60;99.90
21672;DHT22;10997;52.242;8.168;2023-06-24T02:29:20;14.50;99.90
21672;DHT22;10997;52.242;8.168;2023-06-24T02:34:25;14.60;99.90
21672;DHT22;10997;52.242;8.168;2023-06-24T02:39:25;14.50;99.90
21672;DHT22;10997;52.242;8.168;2023-06-24T02:44:26;14.30;99.90
21672;DHT22;10997;52.242;8.168;2023-06-24T02:49:27;14.20;99.90
21672;DHT22;10997;52.242;8.168;2023-06-24T02:54:29;14.10;99.90
21672;DHT22;10997;52.242;8.168;2023-06-24T02:59:29;14.10;99.90
21672;DHT22;10997;52.242;8.168;2023-06-24T03:04:30;14.10;99.90
21672;DHT22;10997;52.242;8.168;2023-06-24T03:09:34;14.10;99.90
21672;DHT22;10997;52.242;8.168;2023-06-24T03:14:35;14.10;99.90
21672;DHT22;10997;52.242;8.168;2023-06-24T03:19:35;14.00;99.90
21672;DHT22;10997;52.242;8.168;2023-06-24T03:24:36;14.00;99.90
21672;DHT22;10997;52.242;8.168;2023-06-24T03:29:36;14.00;99.90
21672;DHT22;10997;52.242;8.168;2023-06-24T03:34:37;14.10;99.90
21672;DHT22;10997;52.242;8.168;2023-06-24T03:39:38;14.10;99.90
21672;DHT22;10997;52.242;8.168;2023-06-24T03:44:38;14.20;99.90
21672;DHT22;10997;52.242;8.168;2023-06-24T03:49:39;14.20;99.90
21672;DHT22;10997;52.242;8.168;2023-06-24T03:54:39;14.30;99.90
21672;DHT22;10997;52.242;8.168;2023-06-24T03:59:40;14.30;99.90
21672;DHT22;10997;52.242;8.168;2023-06-24T04:04:41;14.40;99.90
21672;DHT22;10997;52.242;8.168;2023-06-24T04:09:41;14.40;99.90
21672;DHT22;10997;52.242;8.168;2023-06-24T04:14:42;14.50;99.90
21672;DHT22;10997;52.242;8.168;2023-06-24T04:19:43;14.50;99.90
21672;DHT22;10997;52.242;8.168;2023-06-24T04:24:44;14.70;99.90
21672;DHT22;10997;52.242;8.168;2023-06-24T04:29:45;14.80;99.90
21672;DHT22;10997;52.242;8.168;2023-06-24T04:34:46;14.90;99.90
21672;DHT22;10997;52.242;8.168;2023-06-24T04:39:46;15.10;99.90
21672;DHT22;10997;52.242;8.168;2023-06-24T04:44:48;15.30;99.90
21672;DHT22;10997;52.242;8.168;2023-06-24T04:49:51;15.50;99.90
21672;DHT22;10997;52.242;8.168;2023-06-24T04:54:52;15.70;99.90
21672;DHT22;10997;52.242;8.168;2023-06-24T04:59:52;15.80;99.90
21672;DHT22;10997;52.242;8.168;2023-06-24T05:04:53;16.00;99.90
21672;DHT22;10997;52.242;8.168;2023-06-24T05:09:53;16.20;99.90
21672;DHT22;10997;52.242;8.168;2023-06-24T05:14:54;16.30;99.90
21672;DHT22;10997;52.242;8.168;2023-06-24T05:19:54;16.50;99.90
21672;DHT22;10997;52.242;8.168;2023-06-24T05:24:55;16.70;99.90
21672;DHT22;10997;52.242;8.168;2023-06-24T05:29:55;16.90;99.90
21672;DHT22;10997;52.242;8.168;2023-06-24T05:34:56;17.20;99.90
21672;DHT22;10997;52.242;8.168;2023-06-24T05:39:57;17.40;99.90
21672;DHT22;10997;52.242;8.168;2023-06-24T05:44:57;17.60;99.90
21672;DHT22;10997;52.242;8.168;2023-06-24T05:49:58;18.00;99.90
21672;DHT22;10997;52.242;8.168;2023-06-24T05:54:59;18.20;99.90
21672;DHT22;10997;52.242;8.168;2023-06-24T05:59:59;18.40;99.90
21672;DHT22;10997;52.242;8.168;2023-06-24T06:05:00;18.70;99.90
21672;DHT22;10997;52.242;8.168;2023-06-24T06:10:01;19.00;99.90
21672;DHT22;10997;52.242;8.168;2023-06-24T06:15:02;19.30;99.90
21672;DHT22;10997;52.242;8.168;2023-06-24T06:20:04;19.50;99.90
21672;DHT22;10997;52.242;8.168;2023-06-24T06:25:05;19.80;99.90
21672;DHT22;10997;52.242;8.168;2023-06-24T06:30:07;20.00;99.90
21672;DHT22;10997;52.242;8.168;2023-06-24T06:35:07;20.30;99.90
21672;DHT22;10997;52.242;8.168;2023-06-24T06:40:08;20.50;99.90
21672;DHT22;10997;52.242;8.168;2023-06-24T06:45:10;20.70;99.90
21672;DHT22;10997;52.242;8.168;2023-06-24T06:50:10;21.10;99.90
21672;DHT22;10997;52.242;8.168;2023-06-24T06:55:11;21.40;99.90
21672;DHT22;10997;52.242;8.168;2023-06-24T07:00:12;21.70;99.90
21672;DHT22;10997;52.242;8.168;2023-06-24T07:05:12;21.90;99.90
21672;DHT22;10997;52.242;8.168;2023-06-24T07:10:13;22.20;99.90
21672;DHT22;10997;52.242;8.168;2023-06-24T07:15:14;22.50;99.90
21672;DHT22;10997;52.242;8.168;2023-06-24T07:20:14;22.50;99.90
21672;DHT22;10997;52.242;8.168;2023-06-24T07:25:15;22.80;99.90
21672;DHT22;10997;52.242;8.168;2023-06-24T07:30:16;22.90;99.90
21672;DHT22;10997;52.242;8.168;2023-06-24T07:35:16;22.90;99.90
21672;DHT22;10997;52.242;8.168;2023-06-24T07:40:19;22.90;99.90
21672;DHT22;10997;52.242;8.168;2023-06-24T07:45:20;23.10;99.90
21672;DHT22;10997;52.242;8.168;2023-06-24T07:50:20;23.40;99.90
21672;DHT22;10997;52.242;8.168;2023-06-24T07:55:21;23.80;99.90
21672;DHT22;10997;52.242;8.168;2023-06-24T08:00:22;23.80;99.90
21672;DHT22;10997;52.242;8.168;2023-06-24T08:05:22;23.60;99.90
21672;DHT22;10997;52.242;8.168;2023-06-24T08:10:23;23.60;99.90
21672;DHT22;10997;52.242;8.168;2023-06-24T08:15:24;23.70;99.90
21672;DHT22;10997;52.242;8.168;2023-06-24T08:20:25;23.80;99.90
21672;DHT22;10997;52.242;8.168;2023-06-24T08:25:26;24.00;99.90
21672;DHT22;10997;52.242;8.168;2023-06-24T08:30:27;24.40;99.90
21672;DHT22;10997;52.242;8.168;2023-06-24T08:35:28;24.40;99.90
21672;DHT22;10997;52.242;8.168;2023-06-24T08:40:29;24.90;99.90
21672;DHT22;10997;52.242;8.168;2023-06-24T08:45:29;25.10;99.90
21672;DHT22;10997;52.242;8.168;2023-06-24T08:50:50;24.90;99.90
21672;DHT22;10997;52.242;8.168;2023-06-24T08:55:53;25.00;99.90
21672;DHT22;10997;52.242;8.168;2023-06-24T09:00:54;25.10;99.90
21672;DHT22;10997;52.242;8.168;2023-06-24T09:05:55;25.30;99.90
21672;DHT22;10997;52.242;8.168;2023-06-24T09:10:56;25.90;99.90
21672;DHT22;10997;52.242;8.168;2023-06-24T09:15:57;25.70;99.90
21672;DHT22;10997;52.242;8.168;2023-06-24T09:20:58;25.90;99.90
21672;DHT22;10997;52.242;8.168;2023-06-24T09:25:58;26.10;99.90
21672;DHT22;10997;52.242;8.168;2023-06-24T09:31:09;26.10;99.90
21672;DHT22;10997;52.242;8.168;2023-06-24T09:36:14;26.10;99.90
21672;DHT22;10997;52.242;8.168;2023-06-24T09:41:15;26.50;99.90
21672;DHT22;10997;52.242;8.168;2023-06-24T09:46:16;26.20;99.90
21672;DHT22;10997;52.242;8.168;2023-06-24T09:51:18;26.60;99.90
21672;DHT22;10997;52.242;8.168;2023-06-24T09:56:19;26.90;99.90
21672;DHT22;10997;52.242;8.168;2023-06-24T10:01:20;27.30;99.90
21672;DHT22;10997;52.242;8.168;2023-06-24T10:06:21;27.50;99.90
21672;DHT22;10997;52.242;8.168;2023-06-24T10:11:22;27.80;99.90
21672;DHT22;10997;52.242;8.168;2023-06-24T10:16:23;27.70;99.90
21672;DHT22;10997;52.242;8.168;2023-06-24T10:21:53;28.00;99.90
21672;DHT22;10997;52.242;8.168;2023-06-24T10:26:54;27.50;99.90
21672;DHT22;10997;52.242;8.168;2023-06-24T10:31:55;26.90;99.90
21672;DHT22;10997;52.242;8.168;2023-06-24T10:37:02;26.80;99.90
21672;DHT22;10997;52.242;8.168;2023-06-24T10:47:23;27.60;99.90
21672;DHT22;10997;52.242;8.168;2023-06-24T10:52:24;28.20;99.90
21672;DHT22;10997;52.242;8.168;2023-06-24T10:57:26;28.00;99.90
21672;DHT22;10997;52.242;8.168;2023-06-24T11:02:27;27.80;99.90
21672;DHT22;10997;52.242;8.168;2023-06-24T11:07:29;27.40;99.90
21672;DHT22;10997;52.242;8.168;2023-06-24T11:12:33;27.30;99.90
21672;DHT22;10997;52.242;8.168;2023-06-24T11:17:34;27.80;99.90
21672;DHT22;10997;52.242;8.168;2023-06-24T11:22:35;28.10;99.30
21672;DHT22;10997;52.242;8.168;2023-06-24T11:27:36;27.70;99.10
21672;DHT22;10997;52.242;8.168;2023-06-24T11:32:41;27.50;99.90
21672;DHT22;10997;52.242;8.168;2023-06-24T11:37:45;27.30;99.70
21672;DHT22;10997;52.242;8.168;2023-06-24T11:42:46;27.20;99.90
21672;DHT22;10997;52.242;8.168;2023-06-24T11:47:48;27.10;99.80
21672;DHT22;10997;52.242;8.168;2023-06-24T11:52:49;27.30;99.60
21672;DHT22;10997;52.242;8.168;2023-06-24T11:58:03;28.10;98.40
21672;DHT22;10997;52.242;8.168;2023-06-24T12:03:08;28.10;96.90
21672;DHT22;10997;52.242;8.168;2023-06-24T12:08:11;27.30;98.10
21672;DHT22;10997;52.242;8.168;2023-06-24T12:13:12;27.70;98.40
21672;DHT22;10997;52.242;8.168;2023-06-24T12:18:12;28.60;98.10
21672;DHT22;10997;52.242;8.168;2023-06-24T12:23:14;28.90;96.80
21672;DHT22;10997;52.242;8.168;2023-06-24T12:28:15;28.40;96.80
21672;DHT22;10997;52.242;8.168;2023-06-24T12:33:15;28.50;97.10
21672;DHT22;10997;52.242;8.168;2023-06-24T12:38:19;29.10;96.50
21672;DHT22;10997;52.242;8.168;2023-06-24T12:43:20;29.40;96.00
21672;DHT22;10997;52.242;8.168;2023-06-24T12:48:20;29.90;96.70
21672;DHT22;10997;52.242;8.168;2023-06-24T12:53:21;30.40;95.30
21672;DHT22;10997;52.242;8.168;2023-06-24T12:58:23;29.20;94.80
21672;DHT22;10997;52.242;8.168;2023-06-24T13:03:24;29.10;94.60
21672;DHT22;10997;52.242;8.168;2023-06-24T13:08:25;29.20;95.20
21672;DHT22;10997;52.242;8.168;2023-06-24T13:13:25;29.10;95.60
21672;DHT22;10997;52.242;8.168;2023-06-24T13:18:26;28.40;95.80
21672;DHT22;10997;52.242;8.168;2023-06-24T13:23:27;28.60;96.60
21672;DHT22;10997;52.242;8.168;2023-06-24T13:28:27;29.10;96.20
21672;DHT22;10997;52.242;8.168;2023-06-24T13:33:28;29.20;96.10
21672;DHT22;10997;52.242;8.168;2023-06-24T13:38:29;28.80;95.80
21672;DHT22;10997;52.242;8.168;2023-06-24T13:43:30;28.60;96.10
21672;DHT22;10997;52.242;8.168;2023-06-24T13:48:31;28.90;95.60
21672;DHT22;10997;52.242;8.168;2023-06-24T13:53:31;29.00;95.40
21672;DHT22;10997;52.242;8.168;2023-06-24T13:58:32;29.50;95.50
21672;DHT22;10997;52.242;8.168;2023-06-24T14:03:32;29.50;95.50
21672;DHT22;10997;52.242;8.168;2023-06-24T14:08:33;29.80;95.50
21672;DHT22;10997;52.242;8.168;2023-06-24T14:13:34;30.20;94.10
21672;DHT22;10997;52.242;8.168;2023-06-24T14:18:37;29.90;94.10
21672;DHT22;10997;52.242;8.168;2023-06-24T14:23:38;29.60;93.60
21672;DHT22;10997;52.242;8.168;2023-06-24T14:28:40;29.40;93.70
21672;DHT22;10997;52.242;8.168;2023-06-24T14:33:41;29.00;94.90
21672;DHT22;10997;52.242;8.168;2023-06-24T14:38:41;29.20;95.50
21672;DHT22;10997;52.242;8.168;2023-06-24T14:43:43;29.30;94.90
21672;DHT22;10997;52.242;8.168;2023-06-24T14:48:43;29.90;94.00
21672;DHT22;10997;52.242;8.168;2023-06-24T14:53:44;29.10;94.20
21672;DHT22;10997;52.242;8.168;2023-06-24T14:58:45;28.80;94.30
21672;DHT22;10997;52.242;8.168;2023-06-24T15:03:45;28.60;94.60
21672;DHT22;10997;52.242;8.168;2023-06-24T15:08:46;28.80;94.80
21672;DHT22;10997;52.242;8.168;2023-06-24T15:13:47;29.10;93.40
21672;DHT22;10997;52.242;8.168;2023-06-24T15:18:48;29.10;93.50
21672;DHT22;10997;52.242;8.168;2023-06-24T15:23:50;28.80;93.60
21672;DHT22;10997;52.242;8.168;2023-06-24T15:28:50;28.50;93.90
21672;DHT22;10997;52.242;8.168;2023-06-24T15:33:51;28.40;94.20
21672;DHT22;10997;52.242;8.168;2023-06-24T15:38:52;28.20;94.50
21672;DHT22;10997;52.242;8.168;2023-06-24T15:43:53;28.00;94.50
21672;DHT22;10997;52.242;8.168;2023-06-24T15:48:54;28.40;94.80
21672;DHT22;10997;52.242;8.168;2023-06-24T15:53:54;28.60;94.20
21672;DHT22;10997;52.242;8.168;2023-06-24T15:58:55;28.80;93.10
21672;DHT22;10997;52.242;8.168;2023-06-24T16:03:56;28.90;92.80
21672;DHT22;10997;52.242;8.168;2023-06-24T16:08:56;28.70;93.50
21672;DHT22;10997;52.242;8.168;2023-06-24T16:13:57;28.60;94.10
21672;DHT22;10997;52.242;8.168;2023-06-24T16:18:57;28.30;94.10
21672;DHT22;10997;52.242;8.168;2023-06-24T16:23:58;28.10;94.50
21672;DHT22;10997;52.242;8.168;2023-06-24T16:28:59;28.10;94.60
21672;DHT22;10997;52.242;8.168;2023-06-24T16:33:59;28.30;95.30
21672;DHT22;10997;52.242;8.168;2023-06-24T16:39:00;28.40;95.70
21672;DHT22;10997;52.242;8.168;2023-06-24T16:44:01;28.40;95.60
21672;DHT22;10997;52.242;8.168;2023-06-24T16:49:01;28.60;95.30
21672;DHT22;10997;52.242;8.168;2023-06-24T16:54:06;28.50;95.20
21672;DHT22;10997;52.242;8.168;2023-06-24T16:59:07;28.70;94.80
21672;DHT22;10997;52.242;8.168;2023-06-24T17:04:08;28.90;94.50
21672;DHT22;10997;52.242;8.168;2023-06-24T17:09:08;28.80;95.30
21672;DHT22;10997;52.242;8.168;2023-06-24T17:14:09;28.70;95.40
21672;DHT22;10997;52.242;8.168;2023-06-24T17:19:09;28.60;95.80
21672;DHT22;10997;52.242;8.168;2023-06-24T17:24:10;28.50;96.10
21672;DHT22;10997;52.242;8.168;2023-06-24T17:29:11;28.40;96.70
21672;DHT22;10997;52.242;8.168;2023-06-24T17:34:11;28.40;96.70
21672;DHT22;10997;52.242;8.168;2023-06-24T17:39:12;28.40;96.60
21672;DHT22;10997;52.242;8.168;2023-06-24T17:44:12;28.40;96.00
21672;DHT22;10997;52.242;8.168;2023-06-24T17:49:13;28.40;95.80
21672;DHT22;10997;52.242;8.168;2023-06-24T17:54:13;28.30;96.10
21672;DHT22;10997;52.242;8.168;2023-06-24T17:59:14;28.20;96.30
21672;DHT22;10997;52.242;8.168;2023-06-24T18:04:15;28.00;96.40
21672;DHT22;10997;52.242;8.168;2023-06-24T18:09:16;27.90;96.80
21672;DHT22;10997;52.242;8.168;2023-06-24T18:14:19;28.10;97.40
21672;DHT22;10997;52.242;8.168;2023-06-24T18:19:20;28.20;98.50
21672;DHT22;10997;52.242;8.168;2023-06-24T18:24:20;28.30;98.70
21672;DHT22;10997;52.242;8.168;2023-06-24T18:29:21;28.20;98.60
21672;DHT22;10997;52.242;8.168;2023-06-24T18:34:22;28.30;98.50
21672;DHT22;10997;52.242;8.168;2023-06-24T18:39:22;28.40;98.60
21672;DHT22;10997;52.242;8.168;2023-06-24T18:44:23;28.40;99.00
21672;DHT22;10997;52.242;8.168;2023-06-24T18:49:23;28.50;99.40
21672;DHT22;10997;52.242;8.168;2023-06-24T18:54:24;28.40;99.70
21672;DHT22;10997;52.242;8.168;2023-06-24T18:59:26;28.20;99.70
21672;DHT22;10997;52.242;8.168;2023-06-24T19:04:27;28.20;99.80
21672;DHT22;10997;52.242;8.168;2023-06-24T19:09:28;28.20;99.40
21672;DHT22;10997;52.242;8.168;2023-06-24T19:14:28;28.30;99.60
21672;DHT22;10997;52.242;8.168;2023-06-24T19:19:29;28.00;99.90
21672;DHT22;10997;52.242;8.168;2023-06-24T19:24:30;27.80;99.90
21672;DHT22;10997;52.242;8.168;2023-06-24T19:29:31;27.60;99.90
21672;DHT22;10997;52.242;8.168;2023-06-24T19:34:32;27.40;99.90
21672;DHT22;10997;52.242;8.168;2023-06-24T19:39:32;27.10;99.90
21672;DHT22;10997;52.242;8.168;2023-06-24T19:44:33;26.30;99.90
21672;DHT22;10997;52.242;8.168;2023-06-24T19:49:37;25.60;99.90
21672;DHT22;10997;52.242;8.168;2023-06-24T19:54:38;25.00;99.90
21672;DHT22;10997;52.242;8.168;2023-06-24T19:59:40;24.60;99.90
21672;DHT22;10997;52.242;8.168;2023-06-24T20:04:41;24.30;99.90
21672;DHT22;10997;52.242;8.168;2023-06-24T20:09:41;24.00;99.90
21672;DHT22;10997;52.242;8.168;2023-06-24T20:14:42;23.70;99.90
21672;DHT22;10997;52.242;8.168;2023-06-24T20:19:42;23.40;99.90
21672;DHT22;10997;52.242;8.168;2023-06-24T20:24:43;23.20;99.90
21672;DHT22;10997;52.242;8.168;2023-06-24T20:29:44;23.10;99.90
21672;DHT22;10997;52.242;8.168;2023-06-24T20:34:44;22.90;99.90
21672;DHT22;10997;52.242;8.168;2023-06-24T20:39:45;22.70;99.90
21672;DHT22;10997;52.242;8.168;2023-06-24T20:44:46;22.60;99.90
21672;DHT22;10997;52.242;8.168;2023-06-24T20:49:47;22.40;99.90
21672;DHT22;10997;52.242;8.168;2023-06-24T20:54:47;22.20;99.90
21672;DHT22;10997;52.242;8.168;2023-06-24T20:59:48;22.10;99.90
21672;DHT22;10997;52.242;8.168;2023-06-24T21:04:49;22.00;99.90
21672;DHT22;10997;52.242;8.168;2023-06-24T21:09:49;21.80;99.90
21672;DHT22;10997;52.242;8.168;2023-06-24T21:14:50;21.70;99.90
21672;DHT22;10997;52.242;8.168;2023-06-24T21:19:51;21.50;99.90
21672;DHT22;10997;52.242;8.168;2023-06-24T21:24:51;21.40;99.90
21672;DHT22;10997;52.242;8.168;2023-06-24T21:29:52;21.30;99.90
21672;DHT22;10997;52.242;8.168;2023-06-24T21:34:53;21.20;99.90
21672;DHT22;10997;52.242;8.168;2023-06-24T21:39:54;21.00;99.90
21672;DHT22;10997;52.242;8.168;2023-06-24T21:44:54;20.90;99.90
21672;DHT22;10997;52.242;8.168;2023-06-24T21:49:55;20.80;99.90
21672;DHT22;10997;52.242;8.168;2023-06-24T21:54:55;20.70;99.90
21672;DHT22;10997;52.242;8.168;2023-06-24T21:59:56;20.50;99.90
21672;DHT22;10997;52.242;8.168;2023-06-24T22:04:56;20.40;99.90
21672;DHT22;10997;52.242;8.168;2023-06-24T22:09:57;20.30;99.90
21672;DHT22;10997;52.242;8.168;2023-06-24T22:14:57;20.10;99.90
21672;DHT22;10997;52.242;8.168;2023-06-24T22:19:58;20.00;99.90
21672;DHT22;10997;52.242;8.168;2023-06-24T22:24:59;20.00;99.90
21672;DHT22;10997;52.242;8.168;2023-06-24T22:30:00;19.90;99.90
21672;DHT22;10997;52.242;8.168;2023-06-24T22:35:00;19.90;99.90
21672;DHT22;10997;52.242;8.168;2023-06-24T22:40:01;19.80;99.90
21672;DHT22;10997;52.242;8.168;2023-06-24T22:45:02;19.70;99.90
21672;DHT22;10997;52.242;8.168;2023-06-24T22:50:02;19.60;99.90
21672;DHT22;10997;52.242;8.168;2023-06-24T22:55:03;19.60;99.90
21672;DHT22;10997;52.242;8.168;2023-06-24T23:00:05;19.40;99.90
21672;DHT22;10997;52.242;8.168;2023-06-24T23:05:06;19.20;99.90
21672;DHT22;10997;52.242;8.168;2023-06-24T23:10:07;19.20;99.90
21672;DHT22;10997;52.242;8.168;2023-06-24T23:15:08;19.10;99.90
21672;DHT22;10997;52.242;8.168;2023-06-24T23:20:10;18.90;99.90
21672;DHT22;10997;52.242;8.168;2023-06-24T23:25:11;18.90;99.90
21672;DHT22;10997;52.242;8.168;2023-06-24T23:30:12;18.80;99.90
21672;DHT22;10997;52.242;8.168;2023-06-24T23:35:13;18.60;99.90
21672;DHT22;10997;52.242;8.168;2023-06-24T23:40:14;18.40;99.90
21672;DHT22;10997;52.242;8.168;2023-06-24T23:45:15;18.30;99.90
21672;DHT22;10997;52.242;8.168;2023-06-24T23:50:16;18.40;99.90
21672;DHT22;10997;52.242;8.168;2023-06-24T23:55:16;18.40;99.90
